createdAt,value
2022-08-30T00:01:05.165Z,100049.75
2022-08-30T00:03:54.988Z,100051.63
2022-08-30T00:06:43.191Z,100042.66
2022-08-30T00:09:33.759Z,100048.78
2022-08-30T00:12:21.961Z,100052.47
2022-08-30T00:15:12.382Z,100046.28
2022-08-30T00:18:00.605Z,100051.97
2022-08-30T00:20:50.741Z,100051.09
2022-08-30T00:23:40.313Z,100050.63
2022-08-30T00:26:29.699Z,100048.66
2022-08-30T00:29:17.652Z,100045.94
2022-08-30T00:32:05.898Z,100038.50
2022-08-30T00:34:55.480Z,100049.41
2022-08-30T00:37:44.398Z,100049.69
2022-08-30T00:40:32.512Z,100041.75
2022-08-30T00:43:25.890Z,100040.25
2022-08-30T00:46:15.895Z,100045.06
2022-08-30T00:49:07.575Z,100040.00
2022-08-30T00:51:56.148Z,100049.50
2022-08-30T00:54:45.904Z,100045.66
2022-08-30T00:57:35.825Z,100056.50
2022-08-30T01:00:25.492Z,100055.28
2022-08-30T01:03:13.579Z,100050.31
2022-08-30T01:06:03.478Z,100060.34
2022-08-30T01:08:51.482Z,100059.09
2022-08-30T01:11:41.967Z,100038.72
2022-08-30T01:14:33.153Z,100054.06
2022-08-30T01:17:23.299Z,100064.16
2022-08-30T01:20:14.089Z,100068.28
2022-08-30T01:23:09.520Z,100071.38
2022-08-30T01:25:57.597Z,100070.84
2022-08-30T01:28:48.590Z,100074.25
2022-08-30T01:31:36.942Z,100076.84
2022-08-30T01:34:25.572Z,100069.66
2022-08-30T01:37:13.653Z,100066.16
2022-08-30T01:40:03.384Z,100061.59
2022-08-30T01:42:51.390Z,100068.88
2022-08-30T01:45:39.405Z,100065.03
2022-08-30T01:48:31.159Z,100068.19
2022-08-30T01:51:19.381Z,100069.84
2022-08-30T01:54:07.855Z,100071.44
2022-08-30T01:56:57.185Z,100068.25
2022-08-30T01:59:47.637Z,100060.47
2022-08-30T02:02:36.261Z,100055.47
2022-08-30T02:05:24.278Z,100054.97
2022-08-30T02:08:12.317Z,100048.34
2022-08-30T02:11:01.023Z,100045.97
2022-08-30T02:13:50.907Z,100051.91
2022-08-30T02:16:39.726Z,100060.81
2022-08-30T02:19:27.718Z,100053.53
2022-08-30T02:22:16.167Z,100062.13
2022-08-30T02:25:05.264Z,100069.66
2022-08-30T02:27:53.462Z,100057.91
2022-08-30T02:30:43.526Z,100052.56
2022-08-30T02:33:31.813Z,100062.88
2022-08-30T02:36:21.401Z,100055.41
2022-08-30T02:39:10.735Z,100059.69
2022-08-30T02:41:58.705Z,100050.69
2022-08-30T02:44:46.621Z,100051.25
2022-08-30T02:47:35.925Z,100057.16
2022-08-30T02:50:24.198Z,100057.06
2022-08-30T02:53:16.099Z,100060.94
2022-08-30T02:56:05.127Z,100059.50
2022-08-30T02:58:53.599Z,100051.28
2022-08-30T03:01:41.595Z,100044.31
2022-08-30T03:04:30.920Z,100040.97
2022-08-30T03:07:19.590Z,100032.91
2022-08-30T03:10:08.347Z,100036.94
2022-08-30T03:12:56.437Z,100044.16
2022-08-30T03:15:44.447Z,100037.00
2022-08-30T03:18:33.436Z,100029.03
2022-08-30T03:21:22.754Z,100036.47
2022-08-30T03:24:10.765Z,100032.00
2022-08-30T03:26:58.748Z,100029.59
2022-08-30T03:29:46.725Z,100037.44
2022-08-30T03:32:35.170Z,100036.50
2022-08-30T03:35:23.268Z,100029.25
2022-08-30T03:38:12.624Z,100027.38
2022-08-30T03:41:00.612Z,100033.00
2022-08-30T03:43:48.615Z,100037.81
2022-08-30T03:46:38.727Z,100038.19
2022-08-30T03:49:26.691Z,100019.94
2022-08-30T03:52:14.629Z,100022.03
2022-08-30T03:55:04.969Z,100030.75
2022-08-30T03:57:52.853Z,100023.13
2022-08-30T04:00:41.986Z,100031.66
2022-08-30T04:03:29.961Z,100032.06
2022-08-30T04:06:17.989Z,100024.97
2022-08-30T04:09:06.053Z,100016.25
2022-08-30T04:11:55.506Z,100023.44
2022-08-30T04:14:43.512Z,100016.97
2022-08-30T04:17:31.493Z,100023.56
2022-08-30T04:20:19.695Z,100035.31
2022-08-30T04:23:07.978Z,100031.09
2022-08-30T04:25:57.066Z,99927.56
2022-08-30T04:28:46.546Z,100030.50
2022-08-30T04:31:34.863Z,100035.47
2022-08-30T04:34:22.946Z,100036.09
2022-08-30T04:37:11.057Z,100037.03
2022-08-30T04:40:00.625Z,100040.03
2022-08-30T04:42:48.749Z,100043.41
2022-08-30T04:45:39.915Z,100041.53
2022-08-30T04:48:28.020Z,100039.63
2022-08-30T04:51:18.515Z,99937.28
2022-08-30T04:54:06.990Z,100030.66
2022-08-30T04:56:55.006Z,100043.78
2022-08-30T04:59:43.002Z,100047.75
2022-08-30T05:02:32.422Z,100054.88
2022-08-30T05:05:37.878Z,100062.75
2022-08-30T05:08:25.893Z,100062.84
2022-08-30T05:11:14.751Z,100068.44
2022-08-30T05:14:02.768Z,100070.41
2022-08-30T05:16:50.717Z,100068.06
2022-08-30T05:19:40.122Z,100072.41
2022-08-30T05:22:28.110Z,100074.38
2022-08-30T05:25:16.745Z,100065.69
2022-08-30T05:28:04.858Z,100064.44
2022-08-30T05:30:52.851Z,100072.69
2022-08-30T05:33:40.860Z,100077.34
2022-08-30T05:36:33.197Z,100082.81
2022-08-30T05:39:21.221Z,100085.19
2022-08-30T05:42:10.037Z,100086.31
2022-08-30T05:44:58.742Z,100090.56
2022-08-30T05:47:47.756Z,100094.81
2022-08-30T05:50:39.454Z,100096.56
2022-08-30T05:53:29.334Z,100090.06
2022-08-30T05:56:20.822Z,100094.63
2022-08-30T05:59:10.160Z,100091.69
2022-08-30T06:01:59.324Z,100084.84
2022-08-30T06:04:47.363Z,100079.44
2022-08-30T06:07:35.584Z,100085.59
2022-08-30T06:10:24.919Z,100082.72
2022-08-30T06:13:14.459Z,100083.09
2022-08-30T06:16:02.491Z,100081.38
2022-08-30T06:18:50.913Z,100080.03
2022-08-30T06:21:40.450Z,100081.91
2022-08-30T06:24:53.637Z,100080.59
2022-08-30T06:27:38.174Z,100079.63
2022-08-30T06:30:26.179Z,100074.19
2022-08-30T06:33:14.287Z,100081.41
2022-08-30T06:36:05.942Z,100084.00
2022-08-30T06:38:56.531Z,100085.66
2022-08-30T06:41:44.508Z,100087.59
2022-08-30T06:44:56.359Z,100082.59
2022-08-30T06:47:45.157Z,100098.66
2022-08-30T06:50:33.177Z,100087.59
2022-08-30T06:53:22.156Z,100037.91
2022-08-30T06:56:16.587Z,100105.06
2022-08-30T06:59:05.181Z,100109.25
2022-08-30T07:01:54.735Z,100092.34
2022-08-30T07:04:42.709Z,100097.78
2022-08-30T07:07:30.689Z,100105.47
2022-08-30T07:10:18.746Z,100102.63
2022-08-30T07:13:06.730Z,100101.81
2022-08-30T07:15:54.859Z,100107.16
2022-08-30T07:18:54.814Z,100108.81
2022-08-30T07:21:44.676Z,100108.56
2022-08-30T07:24:32.664Z,100118.97
2022-08-30T07:27:21.037Z,100123.19
2022-08-30T07:30:10.669Z,100117.19
2022-08-30T07:32:59.152Z,100128.13
2022-08-30T07:35:48.703Z,100120.78
2022-08-30T07:38:37.081Z,100119.34
2022-08-30T07:41:27.546Z,100120.22
2022-08-30T07:44:15.867Z,100090.47
2022-08-30T07:47:04.321Z,100097.53
2022-08-30T07:49:52.364Z,100124.72
2022-08-30T07:52:41.682Z,100117.28
2022-08-30T07:55:29.791Z,100071.53
2022-08-30T07:58:17.952Z,100116.19
2022-08-30T08:01:07.578Z,100118.41
2022-08-30T08:03:55.579Z,100127.34
2022-08-30T08:06:45.239Z,100126.06
2022-08-30T08:09:35.348Z,100122.19
2022-08-30T08:12:23.373Z,100123.97
2022-08-30T08:15:12.237Z,100113.75
2022-08-30T08:18:01.129Z,100123.22
2022-08-30T08:20:49.121Z,100111.84
2022-08-30T08:23:37.538Z,100110.44
2022-08-30T08:26:27.001Z,100111.06
2022-08-30T08:29:15.161Z,100107.47
2022-08-30T08:32:03.486Z,100117.16
2022-08-30T08:34:51.485Z,100115.88
2022-08-30T08:37:40.230Z,100114.81
2022-08-30T08:40:28.519Z,100114.50
2022-08-30T08:43:23.047Z,100111.53
2022-08-30T08:46:16.960Z,100110.28
2022-08-30T08:49:08.362Z,100092.72
2022-08-30T08:52:14.320Z,100105.31
2022-08-30T08:55:09.482Z,100103.44
2022-08-30T08:57:58.386Z,100102.00
2022-08-30T09:00:47.765Z,100109.78
2022-08-30T09:03:36.568Z,100109.47
2022-08-30T09:06:39.684Z,100108.34
2022-08-30T09:09:36.672Z,100101.94
2022-08-30T09:12:24.808Z,100094.94
2022-08-30T09:15:18.377Z,100090.75
2022-08-30T09:18:19.112Z,100094.22
2022-08-30T09:21:09.538Z,100092.47
2022-08-30T09:24:03.396Z,100091.59
2022-08-30T09:26:51.454Z,100085.03
2022-08-30T09:29:51.649Z,100091.94
2022-08-30T09:32:41.314Z,100086.47
2022-08-30T09:35:36.445Z,100078.56
2022-08-30T09:38:27.510Z,100077.41
2022-08-30T09:41:35.342Z,100075.00
2022-08-30T09:44:27.909Z,100066.75
2022-08-30T09:47:24.229Z,100076.16
2022-08-30T09:50:14.969Z,100072.34
2022-08-30T09:53:11.938Z,100066.56
2022-08-30T09:56:07.328Z,100062.41
2022-08-30T09:59:06.863Z,100056.06
2022-08-30T10:02:03.444Z,100046.75
2022-08-30T10:04:58.990Z,100050.59
2022-08-30T10:07:55.366Z,100049.63
2022-08-30T10:10:50.631Z,100047.59
2022-08-30T10:14:29.628Z,100052.03
2022-08-30T10:17:33.635Z,100040.44
2022-08-30T10:20:27.582Z,100039.88
2022-08-30T10:23:20.540Z,100032.16
2022-08-30T10:26:15.444Z,100027.25
2022-08-30T10:29:11.428Z,100028.72
2022-08-30T10:32:03.208Z,100020.25
2022-08-30T10:34:55.734Z,100016.34
2022-08-30T10:37:49.112Z,100024.44
2022-08-30T10:41:00.850Z,100006.16
2022-08-30T10:43:58.819Z,100004.44
2022-08-30T10:47:01.394Z,100006.31
2022-08-30T10:49:53.871Z,99992.16
2022-08-30T10:52:48.554Z,100000.19
2022-08-30T10:55:49.441Z,100009.47
2022-08-30T10:58:39.413Z,100008.94
2022-08-30T11:01:46.303Z,99998.66
2022-08-30T11:05:04.396Z,99999.16
2022-08-30T11:08:01.643Z,100004.03
2022-08-30T11:10:59.604Z,100000.47
2022-08-30T11:13:49.677Z,99997.53
2022-08-30T11:16:41.567Z,100001.13
2022-08-30T11:19:39.313Z,100000.16
2022-08-30T11:22:34.408Z,99996.06
2022-08-30T11:29:08.082Z,99988.47
2022-08-30T11:31:59.524Z,99996.19
2022-08-30T11:34:59.433Z,99991.16
2022-08-30T11:37:48.850Z,99993.75
2022-08-30T11:40:51.103Z,99993.22
2022-08-30T11:43:56.037Z,99990.47
2022-08-30T11:46:45.435Z,99991.22
2022-08-30T11:49:58.583Z,99977.84
2022-08-30T11:52:56.283Z,99983.44
2022-08-30T11:56:01.586Z,99978.63
2022-08-30T11:58:55.802Z,99985.72
2022-08-30T12:01:51.092Z,99988.25
2022-08-30T12:04:48.029Z,99988.81
2022-08-30T12:07:59.305Z,99984.56
2022-08-30T12:10:49.544Z,99977.34
2022-08-30T12:13:54.944Z,99968.13
2022-08-30T12:17:00.880Z,99972.53
2022-08-30T12:19:51.170Z,99972.97
2022-08-30T12:22:40.538Z,99979.69
2022-08-30T12:25:32.008Z,99965.16
2022-08-30T12:28:25.901Z,99962.97
2022-08-30T12:31:16.967Z,99963.22
2022-08-30T12:34:05.016Z,99965.88
2022-08-30T12:36:58.396Z,99964.03
2022-08-30T12:39:53.690Z,99965.56
2022-08-30T12:42:50.036Z,99966.22
2022-08-30T12:45:42.837Z,99961.94
2022-08-30T12:48:36.690Z,99962.25
2022-08-30T12:51:35.090Z,99961.47
2022-08-30T12:54:30.290Z,99962.75
2022-08-30T12:57:36.983Z,99958.91
2022-08-30T13:00:26.858Z,99956.34
2022-08-30T13:03:30.719Z,99947.31
2022-08-30T13:06:38.768Z,99944.72
2022-08-30T13:09:33.812Z,99943.38
2022-08-30T13:12:24.280Z,99931.03
2022-08-30T13:15:17.556Z,99934.88
2022-08-30T13:18:27.573Z,99935.41
2022-08-30T13:21:25.566Z,99930.97
2022-08-30T13:24:14.854Z,99931.44
2022-08-30T13:27:09.600Z,99925.09
2022-08-30T13:29:59.034Z,99929.59
2022-08-30T13:32:47.298Z,99924.75
2022-08-30T13:35:35.262Z,99915.28
2022-08-30T13:38:24.144Z,99917.59
2022-08-30T13:41:12.199Z,99920.44
2022-08-30T13:44:16.897Z,99907.28
2022-08-30T13:50:17.849Z,99903.19
2022-08-30T13:53:10.028Z,99897.72
2022-08-30T13:55:58.163Z,99896.16
2022-08-30T13:58:46.171Z,99898.19
2022-08-30T14:02:07.544Z,99888.16
2022-08-30T14:04:43.831Z,99890.03
2022-08-30T14:07:32.349Z,99895.97
2022-08-30T14:10:32.876Z,99891.50
2022-08-30T14:13:21.232Z,99889.44
2022-08-30T14:19:20.115Z,99881.47
2022-08-30T14:22:08.073Z,99878.28
2022-08-30T14:24:56.276Z,99876.56
2022-08-30T14:27:44.233Z,99868.53
2022-08-30T14:30:33.290Z,99870.09
2022-08-30T14:33:21.388Z,99861.69
2022-08-30T14:36:15.668Z,99852.38
2022-08-30T14:39:09.109Z,99862.34
2022-08-30T14:41:57.516Z,99854.53
2022-08-30T14:44:55.590Z,99857.00
2022-08-30T14:47:44.493Z,99839.31
2022-08-30T14:50:32.522Z,99845.03
2022-08-30T14:53:21.978Z,99830.13
2022-08-30T14:56:11.792Z,99833.50
2022-08-30T14:59:02.845Z,99834.16
2022-08-30T15:01:51.517Z,99819.81
2022-08-30T15:04:39.543Z,99825.56
2022-08-30T15:07:27.725Z,99824.16
2022-08-30T15:10:19.959Z,99829.38
2022-08-30T15:13:07.903Z,99826.59
2022-08-30T15:15:55.952Z,99822.88
2022-08-30T15:18:44.453Z,99825.47
2022-08-30T15:21:35.312Z,99825.47
2022-08-30T15:24:29.794Z,99814.53
2022-08-30T15:27:19.434Z,99810.69
2022-08-30T15:30:08.719Z,99817.41
2022-08-30T15:32:59.091Z,99813.00
2022-08-30T15:35:49.023Z,99818.91
2022-08-30T15:38:37.477Z,99794.41
2022-08-30T15:41:25.457Z,99797.38
2022-08-30T15:44:16.485Z,99817.53
2022-08-30T15:47:04.775Z,99818.34
2022-08-30T15:49:56.966Z,99765.72
2022-08-30T15:52:45.005Z,99807.22
2022-08-30T15:55:33.007Z,99807.72
2022-08-30T15:58:22.161Z,99809.28
2022-08-30T16:01:12.839Z,99806.50
2022-08-30T16:04:02.175Z,99803.16
2022-08-30T16:06:50.991Z,99808.31
2022-08-30T16:09:40.873Z,99801.34
2022-08-30T16:12:29.652Z,99803.94
2022-08-30T16:15:17.762Z,99801.84
2022-08-30T16:18:08.007Z,99813.19
2022-08-30T16:21:06.925Z,99811.13
2022-08-30T16:23:56.226Z,99809.56
2022-08-30T16:26:45.297Z,99805.44
2022-08-30T16:29:33.304Z,99800.56
2022-08-30T16:32:22.223Z,99793.09
2022-08-30T16:35:13.166Z,99802.13
2022-08-30T16:38:01.112Z,99793.13
2022-08-30T16:40:49.406Z,99796.44
2022-08-30T16:43:38.922Z,99792.56
2022-08-30T16:46:28.112Z,99787.41
2022-08-30T16:49:16.248Z,99790.50
2022-08-30T16:52:05.963Z,99792.28
2022-08-30T16:54:53.966Z,99789.94
2022-08-30T16:57:41.968Z,99786.06
2022-08-30T17:00:32.138Z,99792.69
2022-08-30T17:06:28.512Z,99796.69
2022-08-30T17:09:19.947Z,99795.56
2022-08-30T17:12:08.451Z,99791.66
2022-08-30T17:14:57.487Z,99794.94
2022-08-30T17:17:45.447Z,99791.09
2022-08-30T17:20:33.714Z,99779.50
2022-08-30T17:23:22.760Z,99793.75
2022-08-30T17:26:13.036Z,99795.22
2022-08-30T17:29:01.040Z,99804.13
2022-08-30T17:31:51.119Z,99797.69
2022-08-30T17:34:39.632Z,99818.19
2022-08-30T17:37:27.973Z,99820.00
2022-08-30T17:40:17.058Z,99818.19
2022-08-30T17:43:06.949Z,99815.56
2022-08-30T17:45:55.404Z,99825.09
2022-08-30T17:48:43.810Z,99822.59
2022-08-30T17:51:32.050Z,99835.38
2022-08-30T17:54:20.932Z,99834.59
2022-08-30T17:57:13.027Z,99833.16
2022-08-30T18:00:04.045Z,99837.38
2022-08-30T18:02:52.354Z,99843.13
2022-08-30T18:05:41.695Z,99835.78
2022-08-30T18:08:32.549Z,99840.59
2022-08-30T18:11:20.594Z,99838.97
2022-08-30T18:14:10.943Z,99848.09
2022-08-30T18:17:00.708Z,99846.84
2022-08-30T18:19:48.639Z,99846.09
2022-08-30T18:22:36.669Z,99839.28
2022-08-30T18:25:24.895Z,99845.97
2022-08-30T18:28:12.937Z,99839.06
2022-08-30T18:31:00.912Z,99853.69
2022-08-30T18:33:50.308Z,99861.63
2022-08-30T18:36:38.717Z,99855.69
2022-08-30T18:39:28.089Z,99855.03
2022-08-30T18:42:22.357Z,99857.53
2022-08-30T18:45:15.527Z,99853.78
2022-08-30T18:48:05.326Z,99848.16
2022-08-30T18:50:54.831Z,99858.28
2022-08-30T18:53:43.519Z,99831.41
2022-08-30T18:56:33.237Z,99856.06
2022-08-30T18:59:21.536Z,99859.81
2022-08-30T19:02:13.459Z,99865.53
2022-08-30T19:05:01.469Z,99864.44
2022-08-30T19:07:51.746Z,99866.13
2022-08-30T19:10:43.281Z,99862.75
2022-08-30T19:13:31.489Z,99859.34
2022-08-30T19:16:19.517Z,99856.69
2022-08-30T19:19:07.949Z,99858.72
2022-08-30T19:21:58.081Z,99866.66
2022-08-30T19:24:47.888Z,99878.09
2022-08-30T19:27:39.892Z,99878.56
2022-08-30T19:30:30.277Z,99878.78
2022-08-30T19:33:19.606Z,99880.50
2022-08-30T19:36:09.253Z,99872.47
2022-08-30T19:38:57.954Z,99879.50
2022-08-30T19:41:48.781Z,99874.81
2022-08-30T19:44:37.111Z,99875.28
2022-08-30T19:47:25.289Z,99822.06
2022-08-30T19:50:13.447Z,99881.53
2022-08-30T19:53:01.490Z,99886.72
2022-08-30T19:55:51.007Z,99886.25
2022-08-30T19:58:41.336Z,99888.75
2022-08-30T20:01:32.641Z,99897.94
2022-08-30T20:04:21.906Z,99894.16
2022-08-30T20:07:10.770Z,99899.00
2022-08-30T20:10:00.255Z,99888.44
2022-08-30T20:12:50.192Z,99889.22
2022-08-30T20:15:39.785Z,99899.56
2022-08-30T20:18:28.823Z,99894.22
2022-08-30T20:21:16.960Z,99893.47
2022-08-30T20:24:05.390Z,99905.66
2022-08-30T20:24:23.927Z,99785.19
2022-08-30T20:26:58.089Z,99913.63
2022-08-30T20:29:46.519Z,99920.66
2022-08-30T20:32:37.735Z,99915.03
2022-08-30T20:35:25.789Z,99909.84
2022-08-30T20:38:20.550Z,99909.66
2022-08-30T20:41:11.460Z,99906.38
2022-08-30T20:44:00.003Z,99909.97
2022-08-30T20:46:49.419Z,99906.53
2022-08-30T20:49:39.193Z,99900.34
2022-08-30T20:52:27.370Z,99900.06
2022-08-30T20:55:17.217Z,99880.38
2022-08-30T20:58:05.195Z,99896.00
2022-08-30T21:00:54.776Z,99896.97
2022-08-30T21:03:44.065Z,99894.94
2022-08-30T21:06:37.368Z,99899.13
2022-08-30T21:09:25.565Z,99896.00
2022-08-30T21:12:13.542Z,99898.97
2022-08-30T21:15:20.790Z,99884.63
2022-08-30T21:18:10.845Z,99892.44
2022-08-30T21:20:59.528Z,99898.22
2022-08-30T21:23:49.433Z,99902.56
2022-08-30T21:26:38.059Z,99909.59
2022-08-30T21:29:26.241Z,99903.34
2022-08-30T21:32:15.011Z,99879.31
2022-08-30T21:35:20.761Z,99895.84
2022-08-30T21:38:08.836Z,99887.59
2022-08-30T21:40:58.368Z,99889.16
2022-08-30T21:43:47.277Z,99895.06
2022-08-30T21:46:36.701Z,99905.50
2022-08-30T21:49:25.285Z,99906.59
2022-08-30T21:52:13.468Z,99910.03
2022-08-30T21:55:01.701Z,99905.34
2022-08-30T21:57:51.075Z,99917.94
2022-08-30T22:00:39.151Z,99920.44
2022-08-30T22:03:27.917Z,99918.72
2022-08-30T22:06:16.792Z,99914.31
2022-08-30T22:09:07.319Z,99913.53
2022-08-30T22:11:56.411Z,99913.53
2022-08-30T22:14:46.113Z,99916.03
2022-08-30T22:17:34.615Z,99918.53
2022-08-30T22:20:22.667Z,99927.25
2022-08-30T22:23:12.266Z,99925.25
2022-08-30T22:26:08.699Z,99933.94
2022-08-30T22:28:56.982Z,99932.41
2022-08-30T22:31:46.432Z,99940.44
2022-08-30T22:34:34.536Z,99925.31
2022-08-30T22:37:22.538Z,99943.25
2022-08-30T22:40:11.278Z,99937.63
2022-08-30T22:43:00.412Z,99935.78
2022-08-30T22:45:48.427Z,99937.03
2022-08-30T22:48:39.046Z,99939.66
2022-08-30T22:51:27.183Z,99935.94
2022-08-30T22:54:15.160Z,99928.00
2022-08-30T22:57:03.420Z,99932.97
2022-08-30T22:59:52.649Z,99933.22
2022-08-30T23:02:40.750Z,99926.41
2022-08-30T23:05:30.129Z,99931.97
2022-08-30T23:08:19.349Z,99920.94
2022-08-30T23:11:07.303Z,99932.78
2022-08-30T23:13:55.818Z,99940.88
2022-08-30T23:16:43.854Z,99944.44
2022-08-30T23:19:31.908Z,99939.16
2022-08-30T23:22:21.251Z,99937.25
2022-08-30T23:25:27.212Z,99943.03
2022-08-30T23:28:39.326Z,99947.25
2022-08-30T23:31:45.071Z,99945.69
2022-08-30T23:34:50.741Z,99943.50
2022-08-30T23:37:58.184Z,99940.19
2022-08-30T23:41:03.860Z,99948.16
2022-08-30T23:44:09.647Z,99942.38
2022-08-30T23:47:15.510Z,99940.31
2022-08-30T23:50:21.157Z,99946.88
2022-08-30T23:53:28.199Z,99940.63
2022-08-30T23:56:34.102Z,99945.28
2022-08-30T23:59:39.568Z,99945.91
